createdAt,value
2022-12-09T00:03:23.084Z,1.52
2022-12-09T00:08:25.971Z,1.51
2022-12-09T00:13:32.640Z,1.50
2022-12-09T00:18:35.370Z,1.52
2022-12-09T00:23:37.110Z,1.54
2022-12-09T00:28:40.025Z,1.54
2022-12-09T00:33:42.302Z,1.51
2022-12-09T00:38:46.204Z,1.50
2022-12-09T00:43:48.436Z,1.51
2022-12-09T00:48:50.912Z,1.50
2022-12-09T00:53:54.924Z,1.51
2022-12-09T00:58:58.674Z,1.52
2022-12-09T01:04:02.773Z,1.52
2022-12-09T01:09:05.200Z,1.52
2022-12-09T01:14:07.328Z,1.52
2022-12-09T01:19:13.319Z,1.52
2022-12-09T01:24:15.437Z,1.51
2022-12-09T01:29:17.146Z,1.50
2022-12-09T01:34:19.340Z,1.50
2022-12-09T01:39:21.209Z,1.51
2022-12-09T01:44:25.385Z,1.50
2022-12-09T01:49:34.315Z,1.50
2022-12-09T01:54:37.672Z,1.52
2022-12-09T01:59:40.329Z,1.55
2022-12-09T02:04:45.638Z,1.55
2022-12-09T02:09:53.473Z,1.54
2022-12-09T02:15:06.783Z,1.53
2022-12-09T02:20:21.605Z,1.53
2022-12-09T02:25:34.352Z,1.53
2022-12-09T02:30:56.753Z,1.54
2022-12-09T02:36:05.783Z,1.58
2022-12-09T02:41:15.266Z,1.60
2022-12-09T02:46:21.881Z,1.59
2022-12-09T02:51:27.300Z,1.60
2022-12-09T02:56:29.570Z,1.58
2022-12-09T03:01:43.928Z,1.55
2022-12-09T03:06:53.230Z,1.57
2022-12-09T03:11:59.524Z,1.56
2022-12-09T03:17:12.900Z,1.54
2022-12-09T03:22:18.541Z,1.53
2022-12-09T03:27:25.643Z,1.51
2022-12-09T03:32:29.893Z,1.49
2022-12-09T03:37:33.213Z,1.49
2022-12-09T03:42:42.884Z,1.48
2022-12-09T03:47:44.728Z,1.51
2022-12-09T03:52:54.011Z,1.52
2022-12-09T03:58:00.297Z,1.52
2022-12-09T04:03:02.086Z,1.49
2022-12-09T04:08:04.159Z,1.45
2022-12-09T04:13:06.305Z,1.45
2022-12-09T04:18:08.182Z,1.41
2022-12-09T04:23:10.564Z,1.33
2022-12-09T04:28:12.644Z,1.33
2022-12-09T04:33:14.649Z,1.30
2022-12-09T04:38:16.341Z,1.24
2022-12-09T04:43:18.235Z,1.20
2022-12-09T04:48:20.472Z,1.10
2022-12-09T04:53:23.292Z,1.05
2022-12-09T04:58:25.427Z,0.99
2022-12-09T05:03:27.453Z,0.90
2022-12-09T05:08:31.656Z,0.80
2022-12-09T05:13:34.312Z,0.70
2022-12-09T05:18:36.829Z,0.61
2022-12-09T05:23:39.530Z,0.51
2022-12-09T05:28:42.370Z,0.43
2022-12-09T05:33:45.823Z,0.35
2022-12-09T05:38:48.957Z,0.26
2022-12-09T05:43:52.128Z,0.17
2022-12-09T05:48:54.800Z,0.09
2022-12-09T05:54:01.022Z,-0.02
2022-12-09T05:59:03.317Z,-0.13
2022-12-09T06:04:05.643Z,-0.22
2022-12-09T06:09:12.219Z,-0.28
2022-12-09T06:14:14.439Z,-0.31
2022-12-09T06:19:16.685Z,-0.33
2022-12-09T06:24:18.844Z,-0.36
2022-12-09T06:29:21.266Z,-0.39
2022-12-09T06:34:23.243Z,-0.43
2022-12-09T06:39:25.200Z,-0.47
2022-12-09T06:44:27.007Z,-0.54
2022-12-09T06:49:28.721Z,-0.61
2022-12-09T06:54:31.059Z,-0.65
2022-12-09T06:59:32.962Z,-0.71
2022-12-09T07:04:35.255Z,-0.73
2022-12-09T07:09:37.808Z,-0.74
2022-12-09T07:14:39.946Z,-0.74
2022-12-09T07:19:41.892Z,-0.72
2022-12-09T07:24:44.592Z,-0.69
2022-12-09T07:29:47.237Z,-0.67
2022-12-09T07:34:49.477Z,-0.64
2022-12-09T07:39:51.436Z,-0.62
2022-12-09T07:44:53.460Z,-0.60
2022-12-09T07:49:56.812Z,-0.57
2022-12-09T07:55:01.623Z,-0.50
2022-12-09T08:00:04.929Z,-0.45
2022-12-09T08:05:13.801Z,-0.40
2022-12-09T08:10:16.612Z,-0.36
2022-12-09T08:15:20.312Z,-0.32
2022-12-09T08:20:28.876Z,-0.29
2022-12-09T08:25:31.466Z,-0.24
2022-12-09T08:30:33.314Z,-0.16
2022-12-09T08:35:38.021Z,-0.05
2022-12-09T08:40:40.786Z,0.07
2022-12-09T08:45:42.726Z,0.22
2022-12-09T08:50:45.375Z,0.38
2022-12-09T08:55:47.647Z,0.54
2022-12-09T09:00:50.419Z,0.71
2022-12-09T09:05:52.397Z,0.96
2022-12-09T09:10:55.105Z,1.18
2022-12-09T09:15:57.094Z,1.38
2022-12-09T09:20:59.734Z,1.50
2022-12-09T09:26:03.499Z,1.68
2022-12-09T09:31:07.692Z,1.89
2022-12-09T09:36:20.984Z,2.03
2022-12-09T09:41:27.226Z,2.08
2022-12-09T09:46:44.224Z,2.17
2022-12-09T09:51:47.615Z,2.22
2022-12-09T09:57:39.084Z,2.25
2022-12-09T10:03:04.972Z,2.31
2022-12-09T10:08:28.069Z,2.42
2022-12-09T10:13:44.224Z,2.49
2022-12-09T10:19:07.655Z,2.53
2022-12-09T10:24:26.201Z,2.60
2022-12-09T10:29:56.789Z,2.63
2022-12-09T10:35:00.375Z,2.64
2022-12-09T10:40:36.237Z,2.72
2022-12-09T10:51:24.795Z,2.91
2022-12-09T10:56:32.640Z,2.91
2022-12-09T11:01:51.659Z,2.90
2022-12-09T11:07:05.229Z,2.86
2022-12-09T11:12:17.610Z,2.85
2022-12-09T11:17:39.971Z,2.91
2022-12-09T11:22:44.139Z,2.98
2022-12-09T11:27:54.608Z,3.04
2022-12-09T11:32:58.775Z,3.07
2022-12-09T11:38:13.326Z,3.16
2022-12-09T11:43:15.279Z,3.22
2022-12-09T11:48:35.015Z,3.26
2022-12-09T11:53:41.189Z,3.28
2022-12-09T11:58:48.648Z,3.32
2022-12-09T12:04:00.654Z,3.32
2022-12-09T12:09:11.731Z,3.35
2022-12-09T12:14:22.976Z,3.42
2022-12-09T12:19:37.370Z,3.48
2022-12-09T12:24:46.359Z,3.52
2022-12-09T12:30:10.728Z,3.57
2022-12-09T12:35:30.544Z,3.64
2022-12-09T12:40:38.765Z,3.68
2022-12-09T12:46:17.191Z,3.72
2022-12-09T12:51:37.257Z,3.82
2022-12-09T12:57:09.286Z,3.80
2022-12-09T13:02:22.905Z,3.69
2022-12-09T13:07:38.629Z,3.64
2022-12-09T13:12:56.587Z,3.58
2022-12-09T13:18:07.450Z,3.55
2022-12-09T13:23:39.897Z,3.55
2022-12-09T13:28:54.857Z,3.50
2022-12-09T13:34:15.593Z,3.43
2022-12-09T13:39:39.208Z,3.37
2022-12-09T13:44:41.032Z,3.31
2022-12-09T13:49:51.571Z,3.29
2022-12-09T13:54:53.412Z,3.25
2022-12-09T14:00:00.468Z,3.21
2022-12-09T14:05:26.161Z,3.17
2022-12-09T14:10:47.821Z,3.17
2022-12-09T14:16:28.137Z,3.19
2022-12-09T14:21:31.178Z,3.18
2022-12-09T14:26:47.810Z,3.16
2022-12-09T14:31:55.426Z,3.09
2022-12-09T14:37:41.570Z,3.03
2022-12-09T14:43:05.193Z,2.97
2022-12-09T14:48:15.021Z,2.95
2022-12-09T14:53:25.836Z,2.97
2022-12-09T14:58:27.928Z,2.86
2022-12-09T15:03:35.451Z,2.82
2022-12-09T15:08:40.977Z,2.79
2022-12-09T15:13:47.373Z,2.71
2022-12-09T15:18:51.314Z,2.61
2022-12-09T15:23:53.369Z,2.51
2022-12-09T15:28:56.617Z,2.41
2022-12-09T15:34:00.770Z,2.32
2022-12-09T15:39:07.254Z,2.25
2022-12-09T15:44:14.291Z,2.18
2022-12-09T15:49:23.172Z,2.15
2022-12-09T15:54:36.027Z,2.10
2022-12-09T15:59:55.340Z,2.03
2022-12-09T16:05:02.908Z,1.96
2022-12-09T16:10:08.113Z,1.89
2022-12-09T16:15:14.243Z,1.87
2022-12-09T16:20:41.230Z,1.83
2022-12-09T16:25:49.281Z,1.84
2022-12-09T16:30:55.730Z,1.81
2022-12-09T16:35:59.180Z,1.77
2022-12-09T16:41:04.273Z,1.75
2022-12-09T16:46:15.339Z,1.75
2022-12-09T16:51:23.899Z,1.76
2022-12-09T16:56:28.576Z,1.74
2022-12-09T17:01:35.626Z,1.70
2022-12-09T17:06:37.351Z,1.64
2022-12-09T17:11:42.900Z,1.57
2022-12-09T17:16:48.873Z,1.51
2022-12-09T17:21:55.348Z,1.46
2022-12-09T17:26:57.016Z,1.41
2022-12-09T17:31:58.789Z,1.38
2022-12-09T17:37:00.502Z,1.36
2022-12-09T17:42:02.239Z,1.34
2022-12-09T17:47:03.931Z,1.32
2022-12-09T17:52:05.851Z,1.27
2022-12-09T17:57:07.543Z,1.19
2022-12-09T18:02:11.189Z,1.13
2022-12-09T18:07:12.905Z,1.11
2022-12-09T18:12:14.592Z,1.08
2022-12-09T18:17:16.393Z,1.08
2022-12-09T18:22:18.134Z,1.07
2022-12-09T18:27:19.855Z,1.03
2022-12-09T18:32:21.592Z,1.00
2022-12-09T18:37:25.735Z,0.97
2022-12-09T18:42:27.405Z,0.94
2022-12-09T18:47:29.195Z,0.88
2022-12-09T18:52:30.921Z,0.82
2022-12-09T18:57:33.232Z,0.81
2022-12-09T19:02:34.986Z,0.77
2022-12-09T19:07:36.818Z,0.73
2022-12-09T19:12:46.991Z,0.72
2022-12-09T19:17:50.066Z,0.72
2022-12-09T19:22:52.292Z,0.69
2022-12-09T19:27:55.192Z,0.64
2022-12-09T19:32:56.928Z,0.62
2022-12-09T19:38:01.573Z,0.61
2022-12-09T19:43:03.899Z,0.54
2022-12-09T19:48:05.749Z,0.52
2022-12-09T19:53:08.870Z,0.54
2022-12-09T19:58:10.588Z,0.53
2022-12-09T20:03:12.382Z,0.52
2022-12-09T20:08:14.159Z,0.50
2022-12-09T20:13:16.383Z,0.48
2022-12-09T20:18:18.151Z,0.45
2022-12-09T20:23:19.886Z,0.45
2022-12-09T20:28:21.614Z,0.45
2022-12-09T20:33:23.263Z,0.46
2022-12-09T20:38:24.947Z,0.46
2022-12-09T20:43:26.712Z,0.44
2022-12-09T20:48:28.397Z,0.44
2022-12-09T20:53:30.577Z,0.44
2022-12-09T20:58:32.293Z,0.43
2022-12-09T21:03:34.279Z,0.43
2022-12-09T21:08:37.456Z,0.44
2022-12-09T21:13:42.356Z,0.42
2022-12-09T21:18:44.104Z,0.40
2022-12-09T21:23:46.918Z,0.39
2022-12-09T21:28:49.219Z,0.39
2022-12-09T21:33:52.511Z,0.40
2022-12-09T21:38:54.441Z,0.39
2022-12-09T21:43:57.605Z,0.40
2022-12-09T21:49:03.967Z,0.38
2022-12-09T21:54:06.296Z,0.38
2022-12-09T21:59:09.900Z,0.40
2022-12-09T22:04:16.096Z,0.42
2022-12-09T22:09:20.702Z,0.45
2022-12-09T22:14:24.109Z,0.46
2022-12-09T22:19:26.610Z,0.46
2022-12-09T22:24:28.335Z,0.46
2022-12-09T22:29:30.107Z,0.48
2022-12-09T22:34:36.986Z,0.49
2022-12-09T22:39:38.717Z,0.51
2022-12-09T22:44:40.975Z,0.50
2022-12-09T22:49:42.684Z,0.49
2022-12-09T22:54:44.529Z,0.48
2022-12-09T22:59:46.215Z,0.46
2022-12-09T23:04:47.908Z,0.46
2022-12-09T23:09:50.261Z,0.47
2022-12-09T23:14:51.967Z,0.48
2022-12-09T23:19:53.674Z,0.48
2022-12-09T23:24:55.381Z,0.47
2022-12-09T23:29:57.166Z,0.45
2022-12-09T23:35:03.075Z,0.46
2022-12-09T23:40:08.672Z,0.46
2022-12-09T23:45:10.676Z,0.47
2022-12-09T23:50:12.333Z,0.47
2022-12-09T23:55:13.990Z,0.47
